Enter the Airport ICAO Code

Search by Airport or City

Current Weather

GCLP | Gran Canaria Airport

Gran Canaria, Canary Islands, Spain

Last Update 7 Minutes Ago

Mostly Cloudy Sky

Temperature of 18 ēC

Strong Winds from North

Temperature

18 ēC

Dew Point Temperature

11 ēC

Relative Humidity

63.77 %

Wind Direction

North (010ē, Without Significant Variations)

Wind Velocity

43 km/h (23 kt)

Gusts

None

Visibility

Greater than 10 Kilometers

Sea Level Pressure

1021 hPa (Hectopascals)

Layers of Clouds

5% to 30% of Sky Covered from 914 mts (3000 ft) Above Ground Level.

60% to 90% of Sky Covered from 1372 mts (4500 ft) Above Ground Level.

METAR GCLP 091000Z 01023KT 9999 FEW030 BKN045 18/11 Q1021 NOSIG

Weather Forecast

GCLP | Gran Canaria Airport

Gran Canaria, Canary Islands, Spain

Forecast valid for the next 23 Hours

From now on it is expected:

Mostly Cloudy Sky

Strong Winds from North

From now on it is expected 16 hours with intermittent periods of:

Strong Winds from North with Gusts

Maximum Temperature

20 ēC in 4 Hours

Minimum Temperature

16 ēC in 21 Hours

TAF GCLP 090800Z 0909/1009 02022KT 9999 BKN035 TX20/0914Z TN16/1007Z PROB30 TEMPO 0909/0910 01012KT PROB30 TEMPO 0909/0912 4900 RA PROB30 TEMPO 0909/1002 02022G32KT